Time;durP1;ratioP1;P1;durP2;ratioP2;P2;SDS_P1;SDS_P2;PMS_P1;PMS_P2;Temp;Humidity;BMP_temperature;BMP_pressure;BME280_temperature;BME280_humidity;BME280_pressure;Samples;Min_cycle;Max_cycle;Signal;HPM_P1;HPM_P2
2024/03/30 00:00:09;;;;;;;5.88;3.30;;;;;;;7.20;65.39;99050.03;4882430;29;20044;-82
2024/03/30 00:02:40;;;;;;;5.85;3.40;;;;;;;7.00;65.46;99026.88;4865141;29;20080;-75
2024/03/30 00:05:06;;;;;;;5.25;3.42;;;;;;;6.82;65.69;98993.41;4896891;29;20052;-76
2024/03/30 00:07:35;;;;;;;5.63;3.47;;;;;;;7.13;65.36;99047.50;4895210;29;20040;-73
2024/03/30 00:10:01;;;;;;;5.15;3.75;;;;;;;7.00;66.04;99034.66;4894636;29;20060;-77
2024/03/30 00:12:30;;;;;;;5.78;3.60;;;;;;;7.02;65.92;99050.16;4894908;29;20044;-77
2024/03/30 00:24:15;;;;;;;6.93;3.55;;;;;;;6.91;66.26;99056.25;4894721;29;20052;-75
2024/03/30 00:26:41;;;;;;;6.05;3.53;;;;;;;6.83;66.05;99026.16;4878655;29;20044;-76
2024/03/30 00:29:07;;;;;;;4.85;3.33;;;;;;;7.03;65.84;99067.38;4878834;29;20040;-76
2024/03/30 00:31:34;;;;;;;4.90;3.50;;;;;;;6.88;65.63;99043.34;4879242;29;20104;-75
2024/03/30 00:34:00;;;;;;;5.10;3.30;;;;;;;6.89;65.98;99047.66;4877951;29;20571;-75
2024/03/30 00:36:27;;;;;;;6.03;3.00;;;;;;;6.87;65.60;99035.56;4893354;29;20052;-74
2024/03/30 00:38:53;;;;;;;7.68;3.45;;;;;;;7.07;65.77;99059.59;4884951;29;20655;-77
2024/03/30 00:41:19;;;;;;;5.55;3.25;;;;;;;7.30;65.90;99087.03;4892974;29;20048;-76
2024/03/30 00:43:45;;;;;;;3.60;3.00;;;;;;;7.31;66.04;99085.31;4883884;29;20167;-74
2024/03/30 00:46:11;;;;;;;4.05;2.92;;;;;;;7.24;66.21;99063.81;4878564;29;20178;-74
2024/03/30 00:48:37;;;;;;;6.97;3.00;;;;;;;7.46;66.48;99095.56;4878245;29;20046;-75
2024/03/30 00:51:04;;;;;;;12.05;2.90;;;;;;;7.49;65.88;99103.31;4877628;29;20062;-75
2024/03/30 00:53:32;;;;;;;4.43;3.10;;;;;;;7.63;66.32;99110.09;4877452;29;20043;-75
2024/03/30 01:10:36;;;;;;;5.50;3.50;;;;;;;7.72;65.56;99120.41;4896090;29;20447;-76
2024/03/30 01:13:03;;;;;;;4.65;3.15;;;;;;;7.65;65.65;99110.94;4879568;29;20029;-80
2024/03/30 01:15:29;;;;;;;5.22;3.55;;;;;;;7.27;65.49;99044.81;4880317;29;20076;-80
2024/03/30 01:17:57;;;;;;;5.60;3.08;;;;;;;7.48;65.48;99083.47;4880243;29;20040;-80
2024/03/30 01:20:24;;;;;;;4.53;3.05;;;;;;;7.57;64.97;99105.84;4873062;29;20051;-78
2024/03/30 01:22:50;;;;;;;5.32;3.42;;;;;;;7.43;65.05;99071.44;4894873;29;20529;-79
2024/03/30 01:25:16;;;;;;;5.03;3.17;;;;;;;7.77;65.25;99134.19;4880816;29;20048;-80
2024/03/30 01:27:44;;;;;;;6.78;3.10;;;;;;;7.49;65.09;99084.34;4881345;29;20049;-80
2024/03/30 01:30:10;;;;;;;4.40;3.17;;;;;;;7.59;65.18;99103.25;4881588;29;20052;-82
2024/03/30 01:32:37;;;;;;;3.60;2.88;;;;;;;7.75;65.27;99125.56;4864216;29;20036;-80
2024/03/30 01:35:04;;;;;;;4.60;3.00;;;;;;;7.75;65.11;99129.88;4865217;29;20044;-81
2024/03/30 01:37:31;;;;;;;3.75;2.63;;;;;;;7.77;64.57;99131.59;4877734;29;20043;-80
2024/03/30 01:39:58;;;;;;;3.95;2.50;;;;;;;7.80;64.58;99139.34;4880512;29;20586;-80
2024/03/30 01:42:29;;;;;;;5.03;2.50;;;;;;;7.37;64.36;99073.19;4888100;29;20412;-84
2024/03/30 01:44:55;;;;;;;3.40;2.50;;;;;;;7.67;64.51;99130.81;4879993;29;20072;-81
2024/03/30 01:47:22;;;;;;;4.40;2.40;;;;;;;7.76;64.42;99155.78;4879673;29;20411;-83
2024/03/30 01:49:50;;;;;;;5.82;2.67;;;;;;;7.71;63.93;99139.41;4879694;29;20420;-80
2024/03/30 01:52:20;;;;;;;4.15;2.65;;;;;;;7.75;63.89;99156.63;4894817;29;20037;-83
2024/03/30 02:09:08;;;;;;;12.48;9.02;;;;;;;7.57;63.49;99177.50;4879339;29;21302;-78
2024/03/30 02:11:34;;;;;;;11.48;8.00;;;;;;;7.38;63.72;99156.91;4874421;29;20052;-78
2024/03/30 02:14:00;;;;;;;9.57;7.30;;;;;;;7.48;63.22;99175.81;4858679;29;20045;-79
2024/03/30 02:16:28;;;;;;;6.80;5.30;;;;;;;7.48;63.12;99181.00;4874770;29;20084;-79
2024/03/30 02:23:21;;;;;;;4.55;3.13;;;;;;;7.33;63.64;99182.78;4883688;29;20051;-84
2024/03/30 02:25:48;;;;;;;5.95;3.70;;;;;;;7.23;63.84;99176.81;4863910;29;20041;-84
2024/03/30 02:28:15;;;;;;;7.28;3.53;;;;;;;7.23;63.67;99191.50;4864849;29;20183;-83
2024/03/30 02:30:43;;;;;;;6.75;3.50;;;;;;;6.97;63.45;99152.78;4855771;29;20109;-75
2024/03/30 02:33:11;;;;;;;12.35;3.67;;;;;;;7.10;63.47;99190.69;4858010;29;20063;-77
2024/03/30 02:35:38;;;;;;;6.18;3.63;;;;;;;7.05;63.74;99192.44;4875196;29;20048;-77
2024/03/30 02:38:04;;;;;;;6.20;3.28;;;;;;;6.99;63.67;99193.31;4858005;29;20045;-77
2024/03/30 02:49:07;;;;;;;5.53;2.97;;;;;;;6.53;63.73;99199.47;4874954;29;20049;-79
2024/03/30 02:51:34;;;;;;;7.32;2.50;;;;;;;6.61;64.18;99223.59;4875266;29;20045;-79
2024/03/30 02:54:00;;;;;;;5.95;3.40;;;;;;;6.31;63.86;99198.66;4876430;29;20045;-77
2024/03/30 02:56:26;;;;;;;7.38;2.70;;;;;;;6.33;64.55;99208.13;4876499;29;20084;-77
2024/03/30 02:58:55;;;;;;;3.45;2.58;;;;;;;6.33;64.19;99215.88;4875996;29;20067;-78
2024/03/30 03:10:54;;;;;;;4.55;2.38;;;;;;;5.93;64.55;99199.50;4895040;29;20189;-77
2024/03/30 03:13:24;;;;;;;4.05;2.60;;;;;;;6.08;64.04;99237.41;4878435;29;20138;-76
2024/03/30 03:15:51;;;;;;;4.13;2.45;;;;;;;6.08;64.78;99260.66;4878522;29;20045;-78
2024/03/30 03:18:18;;;;;;;3.88;2.35;;;;;;;5.95;64.90;99246.84;4880149;29;20130;-76
2024/03/30 03:20:57;;;;;;;4.20;2.40;;;;;;;5.73;64.68;99218.44;4897741;29;20040;-77
2024/03/30 03:23:27;;;;;;;3.00;2.53;;;;;;;5.95;64.91;99259.78;4880292;29;20055;-76
2024/03/30 03:25:56;;;;;;;4.32;3.13;;;;;;;5.79;65.04;99249.41;4895915;29;20203;-75
2024/03/30 03:28:25;;;;;;;3.65;2.70;;;;;;;5.73;65.46;99236.50;4881332;29;20044;-76
2024/03/30 03:30:51;;;;;;;3.42;2.80;;;;;;;5.91;65.57;99270.94;4866276;29;20036;-76
2024/03/30 03:33:18;;;;;;;4.13;2.85;;;;;;;5.92;65.46;99273.53;4872142;29;20048;-74
2024/03/30 03:35:45;;;;;;;4.35;2.67;;;;;;;5.78;66.06;99252.00;4876516;29;20052;-76
2024/03/30 03:38:11;;;;;;;4.20;2.70;;;;;;;5.70;65.47;99234.75;4896027;29;20044;-75
2024/03/30 03:40:37;;;;;;;4.75;2.60;;;;;;;5.88;65.54;99264.03;4880258;29;20048;-75
2024/03/30 03:43:03;;;;;;;2.78;2.47;;;;;;;5.86;65.80;99258.00;4879560;29;20052;-76
2024/03/30 03:45:29;;;;;;;4.00;2.75;;;;;;;6.07;66.02;99277.88;4880311;29;20108;-76
2024/03/30 03:47:55;;;;;;;5.40;2.97;;;;;;;6.14;65.86;99289.09;4897699;29;20045;-75
2024/03/30 03:50:22;;;;;;;5.43;2.60;;;;;;;6.09;65.89;99263.25;4896143;29;20037;-74
2024/03/30 03:52:48;;;;;;;5.80;2.70;;;;;;;6.39;66.27;99296.84;4894392;29;20043;-77
2024/03/30 04:04:30;;;;;;;2.78;2.30;;;;;;;6.57;65.89;99294.25;4878078;29;20052;-75
2024/03/30 04:06:58;;;;;;;4.28;2.47;;;;;;;6.57;66.14;99298.56;4895864;29;20052;-74
2024/03/30 04:14:24;;;;;;;3.47;2.42;;;;;;;6.82;65.37;99309.75;4896833;29;20048;-76
2024/03/30 04:26:15;;;;;;;4.40;2.88;;;;;;;7.34;64.64;99297.56;4896699;29;20057;-76
2024/03/30 04:33:08;;;;;;;3.58;2.50;;;;;;;7.82;64.59;99295.59;4894877;29;20048;-77
2024/03/30 04:51:13;;;;;;;6.00;2.75;;;;;;;9.41;61.97;99323.66;4900209;29;20044;-77
2024/03/30 05:08:49;;;;;;;4.35;2.45;;;;;;;15.18;56.16;99328.66;4894280;29;20045;-76
2024/03/30 05:11:15;;;;;;;4.35;2.88;;;;;;;16.37;53.11;99307.56;4880611;29;20048;-74
2024/03/30 05:13:42;;;;;;;6.25;2.50;;;;;;;17.51;50.66;99319.44;4877036;29;20040;-75
2024/03/30 05:16:08;;;;;;;5.47;2.50;;;;;;;18.64;48.89;99321.19;4893861;29;20055;-75
2024/03/30 05:18:34;;;;;;;3.75;2.42;;;;;;;18.84;46.29;99283.28;4890495;29;20730;-76
2024/03/30 05:21:01;;;;;;;3.55;2.42;;;;;;;18.50;44.26;99262.13;4866423;29;20044;-77
2024/03/30 05:23:31;;;;;;;5.25;2.63;;;;;;;19.83;43.89;99306.25;4891958;29;20040;-77
2024/03/30 05:25:59;;;;;;;3.30;2.60;;;;;;;20.94;42.15;99309.66;4878080;29;20068;-75
2024/03/30 05:28:31;;;;;;;2.60;2.35;;;;;;;22.31;40.28;99287.97;4895785;29;20040;-77
2024/03/30 05:35:39;;;;;;;4.70;2.60;;;;;;;23.31;36.12;99291.88;4894569;29;20040;-76
2024/03/30 05:38:06;;;;;;;3.00;2.30;;;;;;;22.98;35.13;99276.47;4885201;29;20460;-76
2024/03/30 05:40:35;;;;;;;3.33;2.17;;;;;;;22.97;34.79;99257.03;4876969;29;20041;-76
2024/03/30 05:43:05;;;;;;;3.85;2.35;;;;;;;23.76;34.26;99279.91;4891716;29;20127;-77
2024/03/30 05:45:35;;;;;;;4.68;2.60;;;;;;;23.90;33.06;99239.88;4877734;29;20041;-75
2024/03/30 05:48:01;;;;;;;3.22;2.72;;;;;;;23.77;32.84;99253.22;4884949;29;20100;-74
2024/03/30 05:50:29;;;;;;;4.47;2.55;;;;;;;23.63;32.50;99245.41;4892045;29;20079;-75
2024/03/30 05:52:56;;;;;;;6.13;2.55;;;;;;;24.20;31.95;99264.31;4875986;29;20036;-77
2024/03/30 05:55:22;;;;;;;5.05;2.67;;;;;;;25.08;31.23;99259.50;4875630;29;20060;-75
2024/03/30 05:57:50;;;;;;;2.90;2.60;;;;;;;25.73;30.48;99234.94;4884019;29;20040;-76
2024/03/30 06:00:16;;;;;;;4.13;2.75;;;;;;;26.66;29.71;99257.47;4893553;29;20527;-75
2024/03/30 06:02:46;;;;;;;4.93;2.58;;;;;;;27.18;28.54;99264.66;4876773;29;20408;-78
2024/03/30 06:05:13;;;;;;;3.30;2.80;;;;;;;27.55;27.77;99248.09;4878885;29;20040;-76
2024/03/30 06:07:40;;;;;;;3.08;2.70;;;;;;;28.07;26.99;99265.78;4888149;29;20535;-77
2024/03/30 06:10:12;;;;;;;5.85;3.20;;;;;;;28.56;26.38;99271.13;4884936;29;20062;-76
2024/03/30 06:12:38;;;;;;;10.00;3.05;;;;;;;28.58;25.70;99273.69;4876885;29;20029;-74
2024/03/30 06:15:06;;;;;;;3.22;2.92;;;;;;;28.32;25.55;99268.91;4893114;29;20044;-73
2024/03/30 06:17:37;;;;;;;4.68;3.50;;;;;;;28.18;25.02;99283.56;4892121;29;20064;-73
2024/03/30 06:20:08;;;;;;;4.22;3.22;;;;;;;28.54;24.74;99298.06;4890897;29;20044;-75
2024/03/30 06:22:38;;;;;;;4.00;2.97;;;;;;;28.26;24.74;99289.88;4889446;29;20516;-76
2024/03/30 06:25:05;;;;;;;5.03;3.20;;;;;;;28.01;24.71;99304.63;4875354;29;20135;-75
2024/03/30 06:27:35;;;;;;;4.30;3.08;;;;;;;28.40;24.35;99293.09;4890241;29;20075;-76
2024/03/30 06:30:04;;;;;;;4.32;3.70;;;;;;;29.08;24.23;99291.38;4873959;29;20396;-69
2024/03/30 06:32:36;;;;;;;4.40;2.97;;;;;;;29.74;23.25;99298.41;4887041;29;20068;-70
2024/03/30 06:35:03;;;;;;;4.55;3.17;;;;;;;30.49;22.84;99301.88;4873004;29;20052;-70
2024/03/30 06:37:32;;;;;;;5.32;3.20;;;;;;;31.24;21.99;99287.19;4888772;29;20048;-70
2024/03/30 06:45:30;;;;;;;5.63;3.40;;;;;;;31.96;21.00;99304.78;4888486;29;20045;-72
2024/03/30 06:47:57;;;;;;;5.13;3.38;;;;;;;30.49;21.37;99312.63;4873232;29;20522;-68
2024/03/30 06:50:24;;;;;;;5.03;2.95;;;;;;;28.20;21.66;99300.31;4872900;29;20048;-71
2024/03/30 06:52:50;;;;;;;5.30;3.25;;;;;;;27.40;23.12;99316.22;4891961;29;20040;-71
2024/03/30 06:55:16;;;;;;;11.18;3.60;;;;;;;27.56;23.62;99260.47;4861286;29;20759;-70
2024/03/30 06:57:44;;;;;;;4.60;2.80;;;;;;;28.90;22.07;99304.66;4868701;29;20084;-67
2024/03/30 07:00:10;;;;;;;5.88;3.03;;;;;;;30.08;21.73;99304.19;4876595;29;20203;-69
2024/03/30 07:02:36;;;;;;;3.13;2.60;;;;;;;30.82;21.58;99323.63;4860195;29;20045;-71
2024/03/30 07:05:03;;;;;;;5.88;2.67;;;;;;;31.85;20.60;99311.31;4890382;29;20044;-71
2024/03/30 07:07:31;;;;;;;3.90;2.63;;;;;;;32.45;20.38;99315.63;4891144;29;20049;-69
2024/03/30 07:09:57;;;;;;;3.95;2.50;;;;;;;32.55;19.57;99274.28;4892931;29;20123;-67
2024/03/30 07:12:23;;;;;;;4.93;2.72;;;;;;;33.66;19.14;99298.78;4874994;29;20563;-70
2024/03/30 07:14:50;;;;;;;3.50;2.40;;;;;;;34.12;18.66;99327.69;4869350;29;20048;-67
2024/03/30 07:17:16;;;;;;;5.95;2.60;;;;;;;33.94;18.41;99314.50;4877855;29;20135;-69
2024/03/30 07:19:42;;;;;;;4.43;2.88;;;;;;;34.11;18.70;99325.19;4883995;29;20498;-77
2024/03/30 07:22:09;;;;;;;7.43;4.55;;;;;;;34.43;18.12;99307.94;4877262;29;20472;-73
2024/03/30 07:24:35;;;;;;;7.40;2.72;;;;;;;34.46;17.88;99307.59;4882010;29;20049;-70
2024/03/30 07:27:01;;;;;;;6.05;2.78;;;;;;;35.00;17.54;99335.47;4896597;29;20132;-73
2024/03/30 07:29:27;;;;;;;3.90;2.60;;;;;;;35.05;16.99;99333.06;4876563;29;20048;-73
2024/03/30 07:31:56;;;;;;;4.97;2.85;;;;;;;35.36;16.95;99312.31;4893670;29;20067;-73
2024/03/30 07:34:23;;;;;;;4.82;3.10;;;;;;;35.18;16.62;99305.41;4889587;29;20413;-71
2024/03/30 07:36:48;;;;;;;7.38;3.08;;;;;;;35.21;16.44;99305.03;4891535;29;20075;-72
2024/03/30 07:48:43;;;;;;;4.65;2.60;;;;;;;35.93;16.04;99302.63;4897361;29;20040;-77
2024/03/30 08:00:42;;;;;;;7.40;2.75;;;;;;;37.11;15.92;99331.25;4897821;29;20458;-78
2024/03/30 08:03:08;;;;;;;5.53;2.50;;;;;;;36.40;15.90;99323.94;4897163;29;20049;-79
2024/03/30 08:05:34;;;;;;;5.65;2.45;;;;;;;36.44;15.24;99325.25;4877924;29;20050;-79
2024/03/30 08:08:01;;;;;;;4.75;2.47;;;;;;;36.26;15.30;99322.97;4884342;29;20071;-83
2024/03/30 08:15:08;;;;;;;7.53;2.97;;;;;;;38.32;14.93;99323.63;4894280;29;20068;-73
2024/03/30 08:17:34;;;;;;;5.13;2.50;;;;;;;38.55;14.29;99330.56;4878783;29;20519;-72
2024/03/30 08:20:02;;;;;;;12.00;2.50;;;;;;;38.97;13.95;99322.22;4865153;29;20507;-77
2024/03/30 08:22:28;;;;;;;6.22;3.15;;;;;;;39.53;13.40;99325.44;4896530;29;20052;-74
2024/03/30 08:29:34;;;;;;;8.20;2.40;;;;;;;36.19;13.84;99325.63;4897833;29;20036;-81
2024/03/30 08:41:19;;;;;;;4.15;2.08;;;;;;;38.53;14.14;99344.38;4894204;29;20040;-72
2024/03/30 08:49:47;;;;;;;4.38;2.10;;;;;;;36.80;13.29;99354.13;4893100;29;20409;-78
2024/03/30 08:56:50;;;;;;;4.40;1.95;;;;;;;36.45;13.79;99354.84;4892716;29;20041;-73
2024/03/30 08:59:17;;;;;;;8.98;2.22;;;;;;;35.82;13.75;99362.66;4893849;29;20040;-72
2024/03/30 09:01:45;;;;;;;16.95;2.83;;;;;;;35.39;13.99;99334.41;4877941;29;20047;-74
2024/03/30 09:04:11;;;;;;;4.47;2.10;;;;;;;35.96;14.05;99361.81;4892018;29;20143;-74
2024/03/30 09:06:38;;;;;;;6.35;3.25;;;;;;;37.15;14.21;99351.50;4893846;29;20056;-76
2024/03/30 09:09:04;;;;;;;8.25;2.58;;;;;;;37.53;13.74;99359.25;4893073;29;20048;-73
2024/03/30 09:11:30;;;;;;;7.18;2.10;;;;;;;36.34;13.06;99353.47;4892801;29;20067;-74
2024/03/30 09:13:56;;;;;;;13.40;2.25;;;;;;;35.59;13.56;99355.50;4892248;29;20040;-73
2024/03/30 09:16:22;;;;;;;6.85;2.88;;;;;;;35.31;13.59;99345.31;4892434;29;20072;-74
2024/03/30 09:18:48;;;;;;;9.82;1.98;;;;;;;35.66;14.04;99326.66;4892863;29;20049;-73
2024/03/30 09:50:00;;;;;;;7.18;1.98;;;;;;;32.24;15.83;99380.66;4898876;29;20503;-74
2024/03/30 09:52:28;;;;;;;7.22;1.95;;;;;;;33.21;15.54;99373.88;4881736;29;20468;-74
2024/03/30 10:03:58;;;;;;;5.38;2.25;;;;;;;32.55;15.86;99349.66;4898395;29;20036;-80
2024/03/30 10:30:35;;;;;;;7.78;2.72;;;;;;;24.09;21.58;99413.09;4876074;29;20049;-78
2024/03/30 11:10:41;;;;;;;7.07;2.00;;;;;;;19.10;27.13;99447.19;4863366;29;19928;-76
2024/03/30 12:02:44;;;;;;;6.22;1.88;;;;;;;15.48;32.43;99446.41;4879720;29;20044;-74
2024/03/30 12:14:58;;;;;;;2.97;1.15;;;;;;;16.09;32.60;99473.16;4874358;29;20079;-79
2024/03/30 12:22:42;;;;;;;3.33;1.40;;;;;;;17.09;31.94;99488.63;4879101;29;20040;-73
2024/03/30 12:43:46;;;;;;;4.25;2.00;;;;;;;16.06;32.86;99466.28;4876473;29;20053;-75
2024/03/30 12:46:13;;;;;;;5.18;2.58;;;;;;;15.86;33.14;99468.78;4871021;29;20610;-72
2024/03/30 12:48:39;;;;;;;5.30;1.92;;;;;;;15.63;33.39;99454.69;4828604;29;20041;-72
2024/03/30 12:51:05;;;;;;;11.82;4.45;;;;;;;15.73;33.42;99484.91;4847599;29;20049;-73
2024/03/30 12:57:59;;;;;;;3.05;1.70;;;;;;;15.47;33.80;99486.66;4876639;29;20059;-73
2024/03/30 13:00:26;;;;;;;6.40;1.98;;;;;;;15.40;33.90;99485.16;4858651;29;20048;-74
2024/03/30 13:02:57;;;;;;;4.68;1.73;;;;;;;15.20;34.13;99485.81;4874601;29;20043;-72
2024/03/30 13:05:33;;;;;;;4.40;1.73;;;;;;;15.15;34.27;99492.97;4874499;29;20041;-72
2024/03/30 13:16:46;;;;;;;7.88;1.42;;;;;;;14.65;35.00;99475.31;4863850;29;20057;-74
2024/03/30 13:19:14;;;;;;;4.07;1.48;;;;;;;14.61;35.38;99491.13;4885437;29;20048;-74
2024/03/30 13:30:33;;;;;;;8.05;4.25;;;;;;;14.32;36.05;99468.44;4872658;29;20048;-73
2024/03/30 13:32:59;;;;;;;3.40;2.03;;;;;;;14.25;36.00;99459.03;4872779;29;20444;-73
2024/03/30 13:44:26;;;;;;;9.27;2.05;;;;;;;14.15;36.58;99472.41;4871816;29;20060;-73
2024/03/30 13:46:52;;;;;;;8.23;1.95;;;;;;;14.05;37.09;99455.25;4859743;29;20068;-75
2024/03/30 13:54:21;;;;;;;4.10;1.60;;;;;;;14.59;37.05;99498.16;4874030;29;20059;-73
2024/03/30 14:20:44;;;;;;;8.68;2.30;;;;;;;13.49;37.64;99455.91;4876735;29;20052;-74
2024/03/30 14:23:11;;;;;;;4.32;2.10;;;;;;;13.73;37.95;99488.41;4874080;29;20056;-75
2024/03/30 14:25:37;;;;;;;9.23;2.60;;;;;;;13.59;38.13;99465.22;4829937;29;20048;-73
2024/03/30 14:28:04;;;;;;;7.78;3.10;;;;;;;13.65;38.38;99487.72;4871803;29;20537;-73
2024/03/30 14:30:30;;;;;;;12.07;2.45;;;;;;;13.32;38.22;99449.34;4873256;29;20068;-74
2024/03/30 14:32:58;;;;;;;7.35;1.90;;;;;;;13.48;38.76;99507.34;4874275;29;20088;-74
2024/03/30 14:35:24;;;;;;;5.38;1.70;;;;;;;13.11;39.05;99455.97;4874729;29;20356;-74
2024/03/30 14:37:51;;;;;;;4.32;1.67;;;;;;;13.36;39.19;99498.03;4859724;29;20120;-74
2024/03/30 14:40:17;;;;;;;10.13;1.63;;;;;;;13.30;39.53;99503.38;4876371;29;20504;-75
2024/03/30 14:42:44;;;;;;;4.85;1.98;;;;;;;13.21;39.78;99494.03;4874681;29;20212;-74
2024/03/30 14:45:10;;;;;;;5.28;1.88;;;;;;;12.98;40.17;99473.69;4873430;29;20516;-74
2024/03/30 14:47:38;;;;;;;9.40;2.47;;;;;;;13.09;40.10;99500.41;4873631;29;20134;-73
2024/03/30 14:50:05;;;;;;;5.90;2.45;;;;;;;12.72;40.67;99462.13;4877306;29;20067;-75
2024/03/30 14:52:35;;;;;;;8.07;2.13;;;;;;;12.88;40.61;99509.63;4889029;29;20045;-75
2024/03/30 14:55:02;;;;;;;8.10;2.40;;;;;;;12.58;41.36;99475.47;4841156;29;20471;-73
2024/03/30 14:57:30;;;;;;;9.57;2.10;;;;;;;12.65;40.89;99499.69;4871920;29;20782;-74
2024/03/30 14:59:57;;;;;;;9.02;2.03;;;;;;;12.62;41.34;99505.84;4861005;29;20039;-74
2024/03/30 15:02:24;;;;;;;3.67;1.92;;;;;;;12.28;41.45;99459.59;4861000;29;20116;-73
2024/03/30 15:04:53;;;;;;;7.10;2.50;;;;;;;12.17;41.64;99456.34;4856576;29;20056;-74
2024/03/30 15:07:22;;;;;;;3.90;2.33;;;;;;;12.39;41.79;99511.53;4857389;29;20053;-75
2024/03/30 15:09:49;;;;;;;8.02;2.60;;;;;;;12.39;41.96;99531.56;4869636;29;20045;-74
2024/03/30 15:12:16;;;;;;;4.57;2.50;;;;;;;12.19;42.46;99517.19;4861315;29;20488;-74
2024/03/30 15:14:43;;;;;;;8.85;2.80;;;;;;;12.23;42.74;99531.88;4846512;29;20044;-74
2024/03/30 15:17:10;;;;;;;8.23;2.60;;;;;;;11.92;42.59;99488.09;4860514;29;20114;-76
2024/03/30 15:19:36;;;;;;;7.13;2.33;;;;;;;12.01;42.83;99502.75;4880722;29;20136;-76
2024/03/30 15:22:02;;;;;;;7.55;3.00;;;;;;;11.79;43.05;99471.00;4865425;29;20048;-74
2024/03/30 15:24:28;;;;;;;5.22;2.50;;;;;;;11.99;43.04;99510.59;4874071;29;20071;-74
2024/03/30 15:27:04;;;;;;;5.80;2.70;;;;;;;11.73;43.12;99487.59;4862825;29;20503;-75
2024/03/30 15:29:39;;;;;;;6.18;2.53;;;;;;;11.95;43.49;99534.09;4860126;29;20053;-74
2024/03/30 15:32:15;;;;;;;11.73;3.60;;;;;;;11.55;43.34;99489.66;4879040;29;20048;-74
2024/03/30 15:34:42;;;;;;;6.95;2.80;;;;;;;11.70;44.08;99531.94;4848600;29;20042;-74
2024/03/30 15:37:10;;;;;;;16.88;2.92;;;;;;;11.68;43.91;99539.81;4847283;29;20040;-75
2024/03/30 15:39:38;;;;;;;7.10;2.63;;;;;;;11.41;44.55;99521.16;4865474;29;20044;-75
2024/03/30 15:42:05;;;;;;;11.52;3.13;;;;;;;11.26;44.39;99493.59;4861861;29;20036;-74
2024/03/30 15:44:31;;;;;;;5.53;2.92;;;;;;;11.43;44.28;99535.00;4858371;29;20041;-75
2024/03/30 15:46:58;;;;;;;5.00;3.22;;;;;;;11.29;44.39;99521.38;4879716;29;20137;-74
2024/03/30 15:49:24;;;;;;;10.60;3.15;;;;;;;11.40;44.89;99552.44;4874629;29;20495;-75
2024/03/30 15:51:50;;;;;;;7.72;3.30;;;;;;;11.03;44.99;99504.41;4873538;29;20040;-73
2024/03/30 15:54:16;;;;;;;9.48;3.25;;;;;;;11.24;45.42;99547.50;4877309;29;20092;-73
2024/03/30 15:56:44;;;;;;;8.82;3.70;;;;;;;11.17;45.06;99552.78;4860715;29;20122;-74
2024/03/30 15:59:10;;;;;;;9.30;3.10;;;;;;;11.26;45.53;99570.91;4843322;29;20152;-73
2024/03/30 16:01:36;;;;;;;8.43;3.22;;;;;;;11.10;45.63;99542.50;4863004;29;20044;-75
2024/03/30 16:04:03;;;;;;;9.88;3.28;;;;;;;11.03;45.85;99543.47;4875532;29;20048;-75
2024/03/30 16:06:33;;;;;;;8.07;3.67;;;;;;;11.21;45.63;99580.50;4872608;29;20052;-74
2024/03/30 16:08:59;;;;;;;7.60;3.17;;;;;;;11.07;45.81;99562.50;4877573;29;20041;-73
2024/03/30 16:11:25;;;;;;;6.68;2.58;;;;;;;11.08;46.16;99552.06;4862862;29;20040;-73
2024/03/30 16:13:52;;;;;;;7.45;2.92;;;;;;;11.17;45.66;99563.22;4875479;29;20079;-75
2024/03/30 16:16:18;;;;;;;7.97;3.13;;;;;;;11.01;45.90;99545.22;4850767;29;20093;-74
2024/03/30 16:18:44;;;;;;;7.28;3.47;;;;;;;11.03;46.24;99543.47;4877156;29;20053;-74
2024/03/30 16:21:11;;;;;;;7.68;3.80;;;;;;;11.10;45.98;99555.50;4845371;29;20520;-75
2024/03/30 16:23:37;;;;;;;7.82;3.40;;;;;;;11.11;46.24;99578.06;4874682;29;20056;-74
2024/03/30 16:26:03;;;;;;;8.52;3.65;;;;;;;10.61;46.77;99493.75;4858982;29;20044;-74
2024/03/30 16:28:32;;;;;;;7.20;3.42;;;;;;;11.01;46.75;99555.63;4860612;29;21628;-75
2024/03/30 16:30:58;;;;;;;7.78;3.60;;;;;;;10.72;46.75;99530.88;4852533;29;20420;-73
2024/03/30 16:52:15;;;;;;;4.80;2.60;;;;;;;10.46;47.57;99573.72;4874980;29;20127;-74
2024/03/30 17:13:08;;;;;;;7.43;3.60;;;;;;;10.18;48.20;99580.91;4860306;29;20120;-73
2024/03/30 17:15:35;;;;;;;6.18;3.88;;;;;;;10.17;48.52;99585.28;4839787;29;20049;-72
2024/03/30 17:18:01;;;;;;;12.43;3.50;;;;;;;9.88;49.05;99541.38;4857930;29;20088;-73
2024/03/30 17:20:29;;;;;;;7.20;3.25;;;;;;;9.93;49.34;99557.81;4854769;29;20511;-73
2024/03/30 17:22:56;;;;;;;6.68;3.40;;;;;;;10.11;49.10;99587.94;4838346;29;20136;-73
2024/03/30 17:25:22;;;;;;;5.20;3.22;;;;;;;10.18;49.46;99601.72;4839953;29;20083;-73
2024/03/30 17:27:49;;;;;;;6.68;3.30;;;;;;;10.09;49.66;99589.69;4855976;29;20052;-72
2024/03/30 17:30:15;;;;;;;5.80;3.17;;;;;;;9.93;50.19;99569.03;4853719;29;20446;-74
2024/03/30 17:32:41;;;;;;;7.55;3.20;;;;;;;9.89;50.67;99580.34;4858313;29;20516;-74
2024/03/30 17:35:09;;;;;;;6.70;2.67;;;;;;;9.89;51.25;99590.75;4839854;29;20055;-73
2024/03/30 17:37:36;;;;;;;5.15;2.90;;;;;;;9.83;51.56;99575.19;4855419;29;20053;-74
2024/03/30 17:40:04;;;;;;;7.45;2.53;;;;;;;9.61;51.68;99553.75;4843461;29;20477;-74
2024/03/30 17:42:31;;;;;;;4.18;2.58;;;;;;;9.70;51.92;99576.19;4839274;29;20101;-73
2024/03/30 17:44:57;;;;;;;8.32;3.13;;;;;;;9.51;52.39;99555.56;4840258;29;20105;-74
2024/03/30 17:47:23;;;;;;;7.97;2.83;;;;;;;9.27;52.88;99523.72;4853939;29;20045;-73
2024/03/30 17:49:50;;;;;;;4.65;2.50;;;;;;;9.42;53.05;99555.63;4827848;29;20595;-73
2024/03/30 17:52:16;;;;;;;7.00;3.00;;;;;;;8.95;53.65;99477.25;4853630;29;20045;-74
2024/03/30 17:54:44;;;;;;;3.75;2.55;;;;;;;9.17;54.04;99532.47;4838544;29;20045;-75
2024/03/30 17:57:10;;;;;;;7.32;2.70;;;;;;;9.34;54.30;99560.91;4855030;29;20528;-74
2024/03/30 17:59:36;;;;;;;5.75;3.10;;;;;;;9.26;54.61;99566.16;4856449;29;20045;-73
2024/03/30 18:02:02;;;;;;;5.70;2.80;;;;;;;9.09;55.11;99547.25;4855918;29;20427;-73
2024/03/30 18:04:28;;;;;;;5.60;3.00;;;;;;;9.21;55.44;99580.03;4855508;29;20128;-72
2024/03/30 18:06:55;;;;;;;5.47;2.97;;;;;;;8.98;55.56;99544.72;4858150;29;20608;-73
2024/03/30 18:09:21;;;;;;;4.38;3.20;;;;;;;9.03;56.07;99563.72;4836825;29;20454;-73
2024/03/30 18:11:47;;;;;;;4.65;2.83;;;;;;;9.04;56.47;99568.91;4859879;29;20093;-71
2024/03/30 18:14:14;;;;;;;6.30;3.00;;;;;;;8.97;56.49;99568.94;4859546;29;20037;-72
2024/03/30 18:16:40;;;;;;;5.70;3.22;;;;;;;8.91;56.54;99571.56;4855207;29;20148;-73
2024/03/30 18:19:08;;;;;;;5.68;3.40;;;;;;;8.62;57.19;99520.69;4856687;29;20489;-74
2024/03/30 18:21:34;;;;;;;4.93;3.00;;;;;;;8.78;57.51;99543.09;4855899;29;20512;-74
2024/03/30 18:24:01;;;;;;;4.97;2.63;;;;;;;8.82;57.82;99543.94;4841278;29;20046;-74
2024/03/30 18:26:28;;;;;;;4.28;3.00;;;;;;;8.67;58.20;99526.72;4839151;29;20136;-73
2024/03/30 18:28:54;;;;;;;4.93;3.08;;;;;;;8.72;58.25;99535.34;4854762;29;20057;-73
2024/03/30 18:31:20;;;;;;;7.15;3.55;;;;;;;8.65;58.43;99529.34;4858112;29;20052;-72
2024/03/30 18:33:49;;;;;;;5.57;3.03;;;;;;;8.69;58.80;99528.47;4855127;29;20042;-73
2024/03/30 18:36:15;;;;;;;5.07;3.00;;;;;;;8.66;58.62;99512.91;4856260;29;20041;-74
2024/03/30 18:38:42;;;;;;;5.07;3.40;;;;;;;8.69;59.09;99517.19;4857576;29;20049;-72
2024/03/30 18:41:09;;;;;;;5.60;3.33;;;;;;;8.74;58.97;99524.09;4841337;29;20136;-72
2024/03/30 18:43:37;;;;;;;4.60;3.00;;;;;;;8.65;59.05;99503.41;4859087;29;20129;-75
2024/03/30 18:46:04;;;;;;;4.68;3.10;;;;;;;8.65;59.72;99507.72;4839545;29;20082;-73
2024/03/30 18:48:31;;;;;;;6.30;3.63;;;;;;;8.77;59.27;99519.75;4860582;29;20045;-73
2024/03/30 18:51:07;;;;;;;4.93;3.05;;;;;;;8.69;59.54;99497.34;4845611;29;20052;-73
2024/03/30 18:53:35;;;;;;;5.70;3.30;;;;;;;8.71;59.77;99499.91;4844792;29;20048;-73
2024/03/30 18:56:05;;;;;;;8.45;4.03;;;;;;;8.73;59.86;99505.94;4861355;29;20077;-73
2024/03/30 18:58:33;;;;;;;4.03;2.78;;;;;;;8.73;59.55;99508.53;4843872;29;20045;-72
2024/03/30 19:01:06;;;;;;;11.13;4.18;;;;;;;8.72;60.12;99499.88;4846914;29;20128;-73
2024/03/30 19:03:36;;;;;;;5.22;2.90;;;;;;;8.73;59.94;99498.16;4862383;29;20041;-74
2024/03/30 19:06:03;;;;;;;5.03;3.03;;;;;;;8.77;59.77;99493.81;4858166;29;20041;-73
2024/03/30 19:08:30;;;;;;;4.22;2.75;;;;;;;8.74;60.03;99481.72;4829883;29;20503;-72
2024/03/30 19:10:58;;;;;;;4.50;2.90;;;;;;;8.69;60.13;99480.88;4842500;29;20041;-73
2024/03/30 19:13:25;;;;;;;3.63;2.88;;;;;;;8.59;59.88;99464.53;4857582;29;20049;-73